sensor_id;sensor_type;location;lat;lon;timestamp;temperature;humidity
1602;DHT22;794;48.592;9.634;2023-04-07T00:02:55;4.10;1.00
1602;DHT22;794;48.592;9.634;2023-04-07T00:05:24;7.90;1.00
1602;DHT22;794;48.592;9.634;2023-04-07T00:07:51;6.10;1.00
1602;DHT22;794;48.592;9.634;2023-04-07T00:12:45;6.10;1.00
1602;DHT22;794;48.592;9.634;2023-04-07T00:15:12;6.50;1.00
1602;DHT22;794;48.592;9.634;2023-04-07T00:17:39;7.90;1.00
1602;DHT22;794;48.592;9.634;2023-04-07T00:20:07;7.80;1.00
1602;DHT22;794;48.592;9.634;2023-04-07T00:22:35;6.30;1.00
1602;DHT22;794;48.592;9.634;2023-04-07T00:25:03;6.00;1.00
1602;DHT22;794;48.592;9.634;2023-04-07T00:27:30;6.10;1.00
1602;DHT22;794;48.592;9.634;2023-04-07T00:29:57;6.20;1.00
1602;DHT22;794;48.592;9.634;2023-04-07T00:32:24;8.00;1.00
1602;DHT22;794;48.592;9.634;2023-04-07T00:34:50;6.30;1.00
1602;DHT22;794;48.592;9.634;2023-04-07T00:37:17;6.80;1.00
1602;DHT22;794;48.592;9.634;2023-04-07T00:39:46;6.90;1.00
1602;DHT22;794;48.592;9.634;2023-04-07T00:42:13;8.30;1.00
1602;DHT22;794;48.592;9.634;2023-04-07T00:47:07;5.80;1.00
1602;DHT22;794;48.592;9.634;2023-04-07T00:49:36;6.10;1.00
1602;DHT22;794;48.592;9.634;2023-04-07T00:52:04;6.50;1.00
1602;DHT22;794;48.592;9.634;2023-04-07T00:54:31;6.10;1.00
1602;DHT22;794;48.592;9.634;2023-04-07T00:56:59;6.60;1.00
1602;DHT22;794;48.592;9.634;2023-04-07T00:59:27;7.80;1.00
1602;DHT22;794;48.592;9.634;2023-04-07T01:02:01;7.10;1.00
1602;DHT22;794;48.592;9.634;2023-04-07T01:04:32;7.80;1.00
1602;DHT22;794;48.592;9.634;2023-04-07T01:07:04;7.80;1.00
1602;DHT22;794;48.592;9.634;2023-04-07T01:09:36;8.10;1.00
1602;DHT22;794;48.592;9.634;2023-04-07T01:12:14;5.90;1.00
1602;DHT22;794;48.592;9.634;2023-04-07T01:14:50;8.00;1.00
1602;DHT22;794;48.592;9.634;2023-04-07T01:17:21;6.90;1.00
1602;DHT22;794;48.592;9.634;2023-04-07T01:19:55;5.40;1.00
1602;DHT22;794;48.592;9.634;2023-04-07T01:22:39;7.50;1.00
1602;DHT22;794;48.592;9.634;2023-04-07T01:25:22;8.10;1.00
1602;DHT22;794;48.592;9.634;2023-04-07T01:30:53;5.60;1.00
1602;DHT22;794;48.592;9.634;2023-04-07T01:33:22;6.10;1.00
1602;DHT22;794;48.592;9.634;2023-04-07T01:35:50;6.00;1.00
1602;DHT22;794;48.592;9.634;2023-04-07T01:38:18;7.10;1.00
1602;DHT22;794;48.592;9.634;2023-04-07T01:40:47;7.30;1.00
1602;DHT22;794;48.592;9.634;2023-04-07T01:43:15;7.80;1.00
1602;DHT22;794;48.592;9.634;2023-04-07T01:45:45;5.90;1.00
1602;DHT22;794;48.592;9.634;2023-04-07T01:48:14;6.50;1.00
1602;DHT22;794;48.592;9.634;2023-04-07T01:50:42;8.00;1.00
1602;DHT22;794;48.592;9.634;2023-04-07T01:53:10;6.00;1.00
1602;DHT22;794;48.592;9.634;2023-04-07T01:55:37;8.00;1.00
1602;DHT22;794;48.592;9.634;2023-04-07T01:58:04;7.10;1.00
1602;DHT22;794;48.592;9.634;2023-04-07T02:00:31;7.20;1.00
1602;DHT22;794;48.592;9.634;2023-04-07T02:03:06;5.80;1.00
1602;DHT22;794;48.592;9.634;2023-04-07T02:05:37;6.50;1.00
1602;DHT22;794;48.592;9.634;2023-04-07T02:08:07;6.00;1.00
1602;DHT22;794;48.592;9.634;2023-04-07T02:10:36;7.00;1.00
1602;DHT22;794;48.592;9.634;2023-04-07T02:13:05;5.80;1.00
1602;DHT22;794;48.592;9.634;2023-04-07T02:15:35;5.80;1.00
1602;DHT22;794;48.592;9.634;2023-04-07T02:18:02;7.80;1.00
1602;DHT22;794;48.592;9.634;2023-04-07T02:20:30;5.90;1.00
1602;DHT22;794;48.592;9.634;2023-04-07T02:22:58;6.10;1.00
1602;DHT22;794;48.592;9.634;2023-04-07T02:25:27;6.00;1.00
1602;DHT22;794;48.592;9.634;2023-04-07T02:27:56;5.50;1.00
1602;DHT22;794;48.592;9.634;2023-04-07T02:30:23;5.90;1.00
1602;DHT22;794;48.592;9.634;2023-04-07T02:32:50;6.00;1.00
1602;DHT22;794;48.592;9.634;2023-04-07T02:37:45;6.40;1.00
1602;DHT22;794;48.592;9.634;2023-04-07T02:40:14;6.20;1.00
1602;DHT22;794;48.592;9.634;2023-04-07T02:42:41;6.40;1.00
1602;DHT22;794;48.592;9.634;2023-04-07T02:45:09;6.00;1.00
1602;DHT22;794;48.592;9.634;2023-04-07T02:47:37;6.10;1.00
1602;DHT22;794;48.592;9.634;2023-04-07T02:50:05;6.40;1.00
1602;DHT22;794;48.592;9.634;2023-04-07T02:52:32;6.10;1.00
1602;DHT22;794;48.592;9.634;2023-04-07T02:54:59;7.60;1.00
1602;DHT22;794;48.592;9.634;2023-04-07T02:57:28;6.00;1.00
1602;DHT22;794;48.592;9.634;2023-04-07T02:59:55;6.30;1.00
1602;DHT22;794;48.592;9.634;2023-04-07T03:02:22;6.10;1.00
1602;DHT22;794;48.592;9.634;2023-04-07T03:04:50;5.90;1.00
1602;DHT22;794;48.592;9.634;2023-04-07T03:07:17;7.40;1.00
1602;DHT22;794;48.592;9.634;2023-04-07T03:09:44;6.20;1.00
1602;DHT22;794;48.592;9.634;2023-04-07T03:14:40;6.10;1.00
1602;DHT22;794;48.592;9.634;2023-04-07T03:17:07;7.20;1.00
1602;DHT22;794;48.592;9.634;2023-04-07T03:19:33;7.40;1.00
1602;DHT22;794;48.592;9.634;2023-04-07T03:22:01;7.50;1.00
1602;DHT22;794;48.592;9.634;2023-04-07T03:24:28;7.10;1.00
1602;DHT22;794;48.592;9.634;2023-04-07T03:29:22;6.00;1.00
1602;DHT22;794;48.592;9.634;2023-04-07T03:31:50;6.30;1.00
1602;DHT22;794;48.592;9.634;2023-04-07T03:34:17;8.20;1.00
1602;DHT22;794;48.592;9.634;2023-04-07T03:36:44;8.00;1.00
1602;DHT22;794;48.592;9.634;2023-04-07T03:39:11;7.20;1.00
1602;DHT22;794;48.592;9.634;2023-04-07T03:41:38;4.50;1.00
1602;DHT22;794;48.592;9.634;2023-04-07T03:44:05;7.60;1.00
1602;DHT22;794;48.592;9.634;2023-04-07T03:46:32;8.70;1.00
1602;DHT22;794;48.592;9.634;2023-04-07T03:49:00;5.90;1.00
1602;DHT22;794;48.592;9.634;2023-04-07T03:51:27;8.20;1.00
1602;DHT22;794;48.592;9.634;2023-04-07T03:53:54;7.00;1.00
1602;DHT22;794;48.592;9.634;2023-04-07T03:56:21;8.20;1.00
1602;DHT22;794;48.592;9.634;2023-04-07T03:58:49;6.80;1.00
1602;DHT22;794;48.592;9.634;2023-04-07T04:01:16;6.10;1.00
1602;DHT22;794;48.592;9.634;2023-04-07T04:03:43;6.00;1.00
1602;DHT22;794;48.592;9.634;2023-04-07T04:06:11;6.30;1.00
1602;DHT22;794;48.592;9.634;2023-04-07T04:08:38;7.50;1.00
1602;DHT22;794;48.592;9.634;2023-04-07T04:11:05;6.40;1.00
1602;DHT22;794;48.592;9.634;2023-04-07T04:13:32;6.30;1.00
1602;DHT22;794;48.592;9.634;2023-04-07T04:15:58;6.70;1.00
1602;DHT22;794;48.592;9.634;2023-04-07T04:18:25;8.30;1.00
1602;DHT22;794;48.592;9.634;2023-04-07T04:20:52;7.10;1.00
1602;DHT22;794;48.592;9.634;2023-04-07T04:23:20;7.00;1.00
1602;DHT22;794;48.592;9.634;2023-04-07T04:25:48;7.50;1.00
1602;DHT22;794;48.592;9.634;2023-04-07T04:28:16;8.60;1.00
1602;DHT22;794;48.592;9.634;2023-04-07T04:30:43;8.40;1.00
1602;DHT22;794;48.592;9.634;2023-04-07T04:33:09;6.80;1.00
1602;DHT22;794;48.592;9.634;2023-04-07T04:35:36;8.20;1.00
1602;DHT22;794;48.592;9.634;2023-04-07T04:38:04;7.00;1.00
1602;DHT22;794;48.592;9.634;2023-04-07T04:40:32;7.10;1.00
1602;DHT22;794;48.592;9.634;2023-04-07T04:42:59;7.00;1.00
1602;DHT22;794;48.592;9.634;2023-04-07T04:45:25;7.70;1.00
1602;DHT22;794;48.592;9.634;2023-04-07T04:47:52;6.60;1.00
1602;DHT22;794;48.592;9.634;2023-04-07T04:50:19;6.60;1.00
1602;DHT22;794;48.592;9.634;2023-04-07T04:52:49;8.40;1.00
1602;DHT22;794;48.592;9.634;2023-04-07T04:55:16;7.10;1.00
1602;DHT22;794;48.592;9.634;2023-04-07T04:57:46;6.10;1.00
1602;DHT22;794;48.592;9.634;2023-04-07T05:00:13;6.10;1.00
1602;DHT22;794;48.592;9.634;2023-04-07T05:02:40;5.90;1.00
1602;DHT22;794;48.592;9.634;2023-04-07T05:05:08;6.60;1.00
1602;DHT22;794;48.592;9.634;2023-04-07T05:07:34;6.10;1.00
1602;DHT22;794;48.592;9.634;2023-04-07T05:10:01;6.80;1.00
1602;DHT22;794;48.592;9.634;2023-04-07T05:12:29;6.20;1.00
1602;DHT22;794;48.592;9.634;2023-04-07T05:14:57;6.10;1.00
1602;DHT22;794;48.592;9.634;2023-04-07T05:17:24;6.70;1.00
1602;DHT22;794;48.592;9.634;2023-04-07T05:19:51;8.00;1.00
1602;DHT22;794;48.592;9.634;2023-04-07T05:22:17;6.50;1.00
1602;DHT22;794;48.592;9.634;2023-04-07T05:24:44;7.80;1.00
1602;DHT22;794;48.592;9.634;2023-04-07T05:27:11;8.20;1.00
1602;DHT22;794;48.592;9.634;2023-04-07T05:29:38;6.90;1.00
1602;DHT22;794;48.592;9.634;2023-04-07T05:32:06;6.60;1.00
1602;DHT22;794;48.592;9.634;2023-04-07T05:34:36;6.90;1.00
1602;DHT22;794;48.592;9.634;2023-04-07T05:37:03;6.30;1.00
1602;DHT22;794;48.592;9.634;2023-04-07T05:39:30;6.50;1.00
1602;DHT22;794;48.592;9.634;2023-04-07T05:41:57;6.60;1.00
1602;DHT22;794;48.592;9.634;2023-04-07T05:44:24;6.20;1.00
1602;DHT22;794;48.592;9.634;2023-04-07T05:46:50;6.40;1.00
1602;DHT22;794;48.592;9.634;2023-04-07T05:49:19;6.40;1.00
1602;DHT22;794;48.592;9.634;2023-04-07T05:51:46;6.40;1.00
1602;DHT22;794;48.592;9.634;2023-04-07T05:54:12;7.60;1.00
1602;DHT22;794;48.592;9.634;2023-04-07T05:56:39;6.30;1.00
1602;DHT22;794;48.592;9.634;2023-04-07T05:59:06;7.30;1.00
1602;DHT22;794;48.592;9.634;2023-04-07T06:01:33;6.60;1.00
1602;DHT22;794;48.592;9.634;2023-04-07T06:04:00;6.10;1.00
1602;DHT22;794;48.592;9.634;2023-04-07T06:06:29;6.40;1.00
1602;DHT22;794;48.592;9.634;2023-04-07T06:08:56;8.10;1.00
1602;DHT22;794;48.592;9.634;2023-04-07T06:11:25;6.70;1.00
1602;DHT22;794;48.592;9.634;2023-04-07T06:13:53;6.60;1.00
1602;DHT22;794;48.592;9.634;2023-04-07T06:16:20;6.70;1.00
1602;DHT22;794;48.592;9.634;2023-04-07T06:21:17;6.80;1.00
1602;DHT22;794;48.592;9.634;2023-04-07T06:23:45;7.30;1.00
1602;DHT22;794;48.592;9.634;2023-04-07T06:26:12;7.10;1.00
1602;DHT22;794;48.592;9.634;2023-04-07T06:28:39;6.90;1.00
1602;DHT22;794;48.592;9.634;2023-04-07T06:31:06;8.60;1.00
1602;DHT22;794;48.592;9.634;2023-04-07T06:33:33;8.80;1.00
1602;DHT22;794;48.592;9.634;2023-04-07T06:36:00;7.40;1.00
1602;DHT22;794;48.592;9.634;2023-04-07T06:38:27;8.50;1.00
1602;DHT22;794;48.592;9.634;2023-04-07T06:40:55;8.00;1.00
1602;DHT22;794;48.592;9.634;2023-04-07T06:43:22;7.40;1.00
1602;DHT22;794;48.592;9.634;2023-04-07T06:45:49;7.60;1.00
1602;DHT22;794;48.592;9.634;2023-04-07T06:48:16;7.50;1.00
1602;DHT22;794;48.592;9.634;2023-04-07T06:50:45;7.40;1.00
1602;DHT22;794;48.592;9.634;2023-04-07T06:53:12;7.50;1.00
1602;DHT22;794;48.592;9.634;2023-04-07T06:55:38;7.30;1.00
1602;DHT22;794;48.592;9.634;2023-04-07T06:58:10;8.30;1.00
1602;DHT22;794;48.592;9.634;2023-04-07T07:00:40;7.80;1.00
1602;DHT22;794;48.592;9.634;2023-04-07T07:03:06;8.10;1.00
1602;DHT22;794;48.592;9.634;2023-04-07T07:05:33;8.70;1.00
1602;DHT22;794;48.592;9.634;2023-04-07T07:08:00;8.50;1.00
1602;DHT22;794;48.592;9.634;2023-04-07T07:10:28;8.40;1.00
1602;DHT22;794;48.592;9.634;2023-04-07T07:12:54;8.40;1.00
1602;DHT22;794;48.592;9.634;2023-04-07T07:15:23;8.40;1.00
1602;DHT22;794;48.592;9.634;2023-04-07T07:17:49;8.50;1.00
1602;DHT22;794;48.592;9.634;2023-04-07T07:20:16;10.30;1.00
1602;DHT22;794;48.592;9.634;2023-04-07T07:22:43;8.50;1.00
1602;DHT22;794;48.592;9.634;2023-04-07T07:25:10;8.80;1.00
1602;DHT22;794;48.592;9.634;2023-04-07T07:27:37;9.20;1.00
1602;DHT22;794;48.592;9.634;2023-04-07T07:30:05;9.40;1.00
1602;DHT22;794;48.592;9.634;2023-04-07T07:32:33;9.50;1.00
1602;DHT22;794;48.592;9.634;2023-04-07T07:35:00;9.40;1.00
1602;DHT22;794;48.592;9.634;2023-04-07T07:37:27;10.60;1.00
1602;DHT22;794;48.592;9.634;2023-04-07T07:39:54;10.10;1.00
1602;DHT22;794;48.592;9.634;2023-04-07T07:42:21;11.20;1.00
1602;DHT22;794;48.592;9.634;2023-04-07T07:44:47;10.30;1.00
1602;DHT22;794;48.592;9.634;2023-04-07T07:47:15;9.90;1.00
1602;DHT22;794;48.592;9.634;2023-04-07T07:49:43;9.60;1.00
1602;DHT22;794;48.592;9.634;2023-04-07T07:52:10;9.50;1.00
1602;DHT22;794;48.592;9.634;2023-04-07T07:54:37;9.20;1.00
1602;DHT22;794;48.592;9.634;2023-04-07T07:57:04;9.60;1.00
1602;DHT22;794;48.592;9.634;2023-04-07T07:59:31;10.40;1.00
1602;DHT22;794;48.592;9.634;2023-04-07T08:01:58;10.60;1.00
1602;DHT22;794;48.592;9.634;2023-04-07T08:04:25;10.10;1.00
1602;DHT22;794;48.592;9.634;2023-04-07T08:06:53;10.60;1.00
1602;DHT22;794;48.592;9.634;2023-04-07T08:09:20;11.10;1.00
1602;DHT22;794;48.592;9.634;2023-04-07T08:11:47;11.10;1.00
1602;DHT22;794;48.592;9.634;2023-04-07T08:14:14;11.70;1.00
1602;DHT22;794;48.592;9.634;2023-04-07T08:16:41;11.90;1.00
1602;DHT22;794;48.592;9.634;2023-04-07T08:19:08;11.60;1.00
1602;DHT22;794;48.592;9.634;2023-04-07T08:21:35;11.60;1.00
1602;DHT22;794;48.592;9.634;2023-04-07T08:24:04;11.30;1.00
1602;DHT22;794;48.592;9.634;2023-04-07T08:26:32;12.20;1.00
1602;DHT22;794;48.592;9.634;2023-04-07T08:28:59;14.80;1.00
1602;DHT22;794;48.592;9.634;2023-04-07T08:31:29;16.70;1.00
1602;DHT22;794;48.592;9.634;2023-04-07T08:33:56;17.30;1.00
1602;DHT22;794;48.592;9.634;2023-04-07T08:36:24;17.80;1.00
1602;DHT22;794;48.592;9.634;2023-04-07T08:38:52;16.50;1.00
1602;DHT22;794;48.592;9.634;2023-04-07T08:41:23;15.30;1.00
1602;DHT22;794;48.592;9.634;2023-04-07T08:43:53;14.70;1.00
1602;DHT22;794;48.592;9.634;2023-04-07T08:46:21;15.30;1.00
1602;DHT22;794;48.592;9.634;2023-04-07T08:48:51;16.50;1.00
1602;DHT22;794;48.592;9.634;2023-04-07T08:51:26;17.50;1.00
1602;DHT22;794;48.592;9.634;2023-04-07T08:53:53;18.40;1.00
1602;DHT22;794;48.592;9.634;2023-04-07T08:56:24;20.10;1.00
1602;DHT22;794;48.592;9.634;2023-04-07T08:58:51;20.70;1.00
1602;DHT22;794;48.592;9.634;2023-04-07T09:01:19;19.30;1.00
1602;DHT22;794;48.592;9.634;2023-04-07T09:03:47;18.00;1.00
1602;DHT22;794;48.592;9.634;2023-04-07T09:06:15;15.60;1.00
1602;DHT22;794;48.592;9.634;2023-04-07T09:08:42;14.40;1.00
1602;DHT22;794;48.592;9.634;2023-04-07T09:11:09;14.00;1.00
1602;DHT22;794;48.592;9.634;2023-04-07T09:13:38;14.60;1.00
1602;DHT22;794;48.592;9.634;2023-04-07T09:16:05;16.30;1.00
1602;DHT22;794;48.592;9.634;2023-04-07T09:18:32;17.20;1.00
1602;DHT22;794;48.592;9.634;2023-04-07T09:21:01;17.60;1.00
1602;DHT22;794;48.592;9.634;2023-04-07T09:23:29;15.70;1.00
1602;DHT22;794;48.592;9.634;2023-04-07T09:25:57;14.70;1.00
1602;DHT22;794;48.592;9.634;2023-04-07T09:28:40;14.10;1.00
1602;DHT22;794;48.592;9.634;2023-04-07T09:31:07;14.00;1.00
1602;DHT22;794;48.592;9.634;2023-04-07T09:33:34;13.90;1.00
1602;DHT22;794;48.592;9.634;2023-04-07T09:36:01;13.60;1.00
1602;DHT22;794;48.592;9.634;2023-04-07T09:38:32;12.70;1.00
1602;DHT22;794;48.592;9.634;2023-04-07T09:41:07;13.10;1.00
1602;DHT22;794;48.592;9.634;2023-04-07T09:43:35;12.60;1.00
1602;DHT22;794;48.592;9.634;2023-04-07T09:46:11;13.20;1.00
1602;DHT22;794;48.592;9.634;2023-04-07T09:48:39;15.40;1.00
1602;DHT22;794;48.592;9.634;2023-04-07T09:51:07;17.40;1.00
1602;DHT22;794;48.592;9.634;2023-04-07T09:53:42;17.20;1.00
1602;DHT22;794;48.592;9.634;2023-04-07T09:56:09;15.60;1.00
1602;DHT22;794;48.592;9.634;2023-04-07T09:58:37;15.60;1.00
1602;DHT22;794;48.592;9.634;2023-04-07T10:01:07;13.80;1.00
1602;DHT22;794;48.592;9.634;2023-04-07T10:03:35;13.30;1.00
1602;DHT22;794;48.592;9.634;2023-04-07T10:06:03;12.60;1.00
1602;DHT22;794;48.592;9.634;2023-04-07T10:08:32;12.60;1.00
1602;DHT22;794;48.592;9.634;2023-04-07T10:11:00;11.90;1.00
1602;DHT22;794;48.592;9.634;2023-04-07T10:13:28;11.50;1.00
1602;DHT22;794;48.592;9.634;2023-04-07T10:15:55;11.60;1.00
1602;DHT22;794;48.592;9.634;2023-04-07T10:18:27;11.70;1.00
1602;DHT22;794;48.592;9.634;2023-04-07T10:20:55;11.70;1.00
1602;DHT22;794;48.592;9.634;2023-04-07T10:23:28;11.80;1.00
1602;DHT22;794;48.592;9.634;2023-04-07T10:25:58;12.10;1.00
1602;DHT22;794;48.592;9.634;2023-04-07T10:28:27;12.00;1.00
1602;DHT22;794;48.592;9.634;2023-04-07T10:30:57;11.90;1.00
1602;DHT22;794;48.592;9.634;2023-04-07T10:33:44;11.50;1.00
1602;DHT22;794;48.592;9.634;2023-04-07T10:36:12;11.10;1.00
1602;DHT22;794;48.592;9.634;2023-04-07T10:38:38;10.70;1.00
1602;DHT22;794;48.592;9.634;2023-04-07T10:41:31;11.00;1.00
1602;DHT22;794;48.592;9.634;2023-04-07T10:43:58;11.20;1.00
1602;DHT22;794;48.592;9.634;2023-04-07T10:46:25;10.70;1.00
1602;DHT22;794;48.592;9.634;2023-04-07T10:49:14;11.30;1.00
1602;DHT22;794;48.592;9.634;2023-04-07T10:51:42;10.90;1.00
1602;DHT22;794;48.592;9.634;2023-04-07T10:54:18;11.40;1.00
1602;DHT22;794;48.592;9.634;2023-04-07T10:57:07;11.60;1.00
1602;DHT22;794;48.592;9.634;2023-04-07T10:59:37;12.20;1.00
1602;DHT22;794;48.592;9.634;2023-04-07T11:02:34;12.60;1.00
1602;DHT22;794;48.592;9.634;2023-04-07T11:05:02;12.80;1.00
1602;DHT22;794;48.592;9.634;2023-04-07T11:07:44;12.40;1.00
1602;DHT22;794;48.592;9.634;2023-04-07T11:10:12;12.60;1.00
1602;DHT22;794;48.592;9.634;2023-04-07T11:12:40;12.40;1.00
1602;DHT22;794;48.592;9.634;2023-04-07T11:15:19;11.70;1.00
1602;DHT22;794;48.592;9.634;2023-04-07T11:18:05;11.20;1.00
1602;DHT22;794;48.592;9.634;2023-04-07T11:20:42;11.70;1.00
1602;DHT22;794;48.592;9.634;2023-04-07T11:23:09;12.50;1.00
1602;DHT22;794;48.592;9.634;2023-04-07T11:25:36;12.40;1.00
1602;DHT22;794;48.592;9.634;2023-04-07T11:28:03;12.50;1.00
1602;DHT22;794;48.592;9.634;2023-04-07T11:30:31;12.40;1.00
1602;DHT22;794;48.592;9.634;2023-04-07T11:32:58;12.40;1.00
1602;DHT22;794;48.592;9.634;2023-04-07T11:35:25;12.50;1.00
1602;DHT22;794;48.592;9.634;2023-04-07T11:37:58;12.60;1.00
1602;DHT22;794;48.592;9.634;2023-04-07T11:40:33;12.70;1.00
1602;DHT22;794;48.592;9.634;2023-04-07T11:43:01;13.20;1.00
1602;DHT22;794;48.592;9.634;2023-04-07T11:45:29;12.60;1.00
1602;DHT22;794;48.592;9.634;2023-04-07T11:47:55;12.60;1.00
1602;DHT22;794;48.592;9.634;2023-04-07T11:50:41;12.60;1.00
1602;DHT22;794;48.592;9.634;2023-04-07T11:53:09;12.00;1.00
1602;DHT22;794;48.592;9.634;2023-04-07T11:55:36;12.40;1.00
1602;DHT22;794;48.592;9.634;2023-04-07T11:58:06;12.40;1.00
1602;DHT22;794;48.592;9.634;2023-04-07T12:00:35;12.30;1.00
1602;DHT22;794;48.592;9.634;2023-04-07T12:03:09;12.20;1.00
1602;DHT22;794;48.592;9.634;2023-04-07T12:05:42;12.40;1.00
1602;DHT22;794;48.592;9.634;2023-04-07T12:08:12;12.30;1.00
1602;DHT22;794;48.592;9.634;2023-04-07T12:10:39;12.50;1.00
1602;DHT22;794;48.592;9.634;2023-04-07T12:13:06;12.10;1.00
1602;DHT22;794;48.592;9.634;2023-04-07T12:15:35;12.50;1.00
1602;DHT22;794;48.592;9.634;2023-04-07T12:18:02;12.10;1.00
1602;DHT22;794;48.592;9.634;2023-04-07T12:20:29;12.00;1.00
1602;DHT22;794;48.592;9.634;2023-04-07T12:22:57;11.80;1.00
1602;DHT22;794;48.592;9.634;2023-04-07T12:25:26;12.00;1.00
1602;DHT22;794;48.592;9.634;2023-04-07T12:28:00;12.40;1.00
1602;DHT22;794;48.592;9.634;2023-04-07T12:30:31;11.50;1.00
1602;DHT22;794;48.592;9.634;2023-04-07T12:32:58;11.70;1.00
1602;DHT22;794;48.592;9.634;2023-04-07T12:35:28;11.50;1.00
1602;DHT22;794;48.592;9.634;2023-04-07T12:37:55;11.90;1.00
1602;DHT22;794;48.592;9.634;2023-04-07T12:40:22;10.20;1.00
1602;DHT22;794;48.592;9.634;2023-04-07T12:42:50;13.00;1.00
1602;DHT22;794;48.592;9.634;2023-04-07T12:45:17;11.70;1.00
1602;DHT22;794;48.592;9.634;2023-04-07T12:47:44;11.80;1.00
1602;DHT22;794;48.592;9.634;2023-04-07T12:50:11;12.00;1.00
1602;DHT22;794;48.592;9.634;2023-04-07T12:52:37;11.80;1.00
1602;DHT22;794;48.592;9.634;2023-04-07T12:55:06;11.90;1.00
1602;DHT22;794;48.592;9.634;2023-04-07T12:57:33;11.80;1.00
1602;DHT22;794;48.592;9.634;2023-04-07T13:00:01;12.00;1.00
1602;DHT22;794;48.592;9.634;2023-04-07T13:02:28;12.10;1.00
1602;DHT22;794;48.592;9.634;2023-04-07T13:04:55;12.00;1.00
1602;DHT22;794;48.592;9.634;2023-04-07T13:07:25;11.40;1.00
1602;DHT22;794;48.592;9.634;2023-04-07T13:09:51;11.50;1.00
1602;DHT22;794;48.592;9.634;2023-04-07T13:12:19;11.60;1.00
1602;DHT22;794;48.592;9.634;2023-04-07T13:14:46;11.70;1.00
1602;DHT22;794;48.592;9.634;2023-04-07T13:17:14;11.20;1.00
1602;DHT22;794;48.592;9.634;2023-04-07T13:19:41;11.60;1.00
1602;DHT22;794;48.592;9.634;2023-04-07T13:22:11;11.60;1.00
1602;DHT22;794;48.592;9.634;2023-04-07T13:24:38;12.00;1.00
1602;DHT22;794;48.592;9.634;2023-04-07T13:27:05;11.60;1.00
1602;DHT22;794;48.592;9.634;2023-04-07T13:29:32;11.30;1.00
1602;DHT22;794;48.592;9.634;2023-04-07T13:32:04;11.70;1.00
1602;DHT22;794;48.592;9.634;2023-04-07T13:34:33;11.80;1.00
1602;DHT22;794;48.592;9.634;2023-04-07T13:37:00;11.60;1.00
1602;DHT22;794;48.592;9.634;2023-04-07T13:39:27;11.50;1.00
1602;DHT22;794;48.592;9.634;2023-04-07T13:41:55;11.00;1.00
1602;DHT22;794;48.592;9.634;2023-04-07T13:44:22;11.60;1.00
1602;DHT22;794;48.592;9.634;2023-04-07T13:46:49;11.40;1.00
1602;DHT22;794;48.592;9.634;2023-04-07T13:49:16;11.70;1.00
1602;DHT22;794;48.592;9.634;2023-04-07T13:51:45;12.00;1.00
1602;DHT22;794;48.592;9.634;2023-04-07T13:54:12;12.20;1.00
1602;DHT22;794;48.592;9.634;2023-04-07T13:56:39;14.20;1.00
1602;DHT22;794;48.592;9.634;2023-04-07T13:59:06;12.30;1.00
1602;DHT22;794;48.592;9.634;2023-04-07T14:01:33;12.40;1.00
1602;DHT22;794;48.592;9.634;2023-04-07T14:04:03;13.20;1.00
1602;DHT22;794;48.592;9.634;2023-04-07T14:06:30;13.50;1.00
1602;DHT22;794;48.592;9.634;2023-04-07T14:09:03;13.70;1.00
1602;DHT22;794;48.592;9.634;2023-04-07T14:11:36;13.90;1.00
1602;DHT22;794;48.592;9.634;2023-04-07T14:14:03;13.80;1.00
1602;DHT22;794;48.592;9.634;2023-04-07T14:16:30;13.20;1.00
1602;DHT22;794;48.592;9.634;2023-04-07T14:18:57;13.00;1.00
1602;DHT22;794;48.592;9.634;2023-04-07T14:21:24;13.00;1.00
1602;DHT22;794;48.592;9.634;2023-04-07T14:23:52;12.70;1.00
1602;DHT22;794;48.592;9.634;2023-04-07T14:26:20;12.50;1.00
1602;DHT22;794;48.592;9.634;2023-04-07T14:28:47;12.60;1.00
1602;DHT22;794;48.592;9.634;2023-04-07T14:31:14;12.40;1.00
1602;DHT22;794;48.592;9.634;2023-04-07T14:33:41;12.00;1.00
1602;DHT22;794;48.592;9.634;2023-04-07T14:36:08;12.30;1.00
1602;DHT22;794;48.592;9.634;2023-04-07T14:38:35;12.10;1.00
1602;DHT22;794;48.592;9.634;2023-04-07T14:41:02;10.50;1.00
1602;DHT22;794;48.592;9.634;2023-04-07T14:43:30;12.00;1.00
1602;DHT22;794;48.592;9.634;2023-04-07T14:45:57;12.00;1.00
1602;DHT22;794;48.592;9.634;2023-04-07T14:48:28;11.80;1.00
1602;DHT22;794;48.592;9.634;2023-04-07T14:50:55;11.70;1.00
1602;DHT22;794;48.592;9.634;2023-04-07T14:53:22;11.70;1.00
1602;DHT22;794;48.592;9.634;2023-04-07T14:55:49;11.80;1.00
1602;DHT22;794;48.592;9.634;2023-04-07T14:58:16;11.60;1.00
1602;DHT22;794;48.592;9.634;2023-04-07T15:00:44;12.00;1.00
1602;DHT22;794;48.592;9.634;2023-04-07T15:03:11;11.70;1.00
1602;DHT22;794;48.592;9.634;2023-04-07T15:05:38;12.20;1.00
1602;DHT22;794;48.592;9.634;2023-04-07T15:08:05;12.10;1.00
1602;DHT22;794;48.592;9.634;2023-04-07T15:10:32;12.30;1.00
1602;DHT22;794;48.592;9.634;2023-04-07T15:13:00;12.50;1.00
1602;DHT22;794;48.592;9.634;2023-04-07T15:15:28;12.30;1.00
1602;DHT22;794;48.592;9.634;2023-04-07T15:17:56;12.50;1.00
1602;DHT22;794;48.592;9.634;2023-04-07T15:20:24;12.70;1.00
1602;DHT22;794;48.592;9.634;2023-04-07T15:22:51;12.40;1.00
1602;DHT22;794;48.592;9.634;2023-04-07T15:25:18;12.50;1.00
1602;DHT22;794;48.592;9.634;2023-04-07T15:27:47;12.80;1.00
1602;DHT22;794;48.592;9.634;2023-04-07T15:30:14;13.00;1.00
1602;DHT22;794;48.592;9.634;2023-04-07T15:32:41;11.90;1.00
1602;DHT22;794;48.592;9.634;2023-04-07T15:35:10;12.10;1.00
1602;DHT22;794;48.592;9.634;2023-04-07T15:37:38;11.80;1.00
1602;DHT22;794;48.592;9.634;2023-04-07T15:40:06;11.50;1.00
1602;DHT22;794;48.592;9.634;2023-04-07T15:42:33;11.30;1.00
1602;DHT22;794;48.592;9.634;2023-04-07T15:45:05;10.20;1.00
1602;DHT22;794;48.592;9.634;2023-04-07T15:47:32;10.20;1.00
1602;DHT22;794;48.592;9.634;2023-04-07T15:49:59;9.90;1.00
1602;DHT22;794;48.592;9.634;2023-04-07T15:52:28;9.90;1.00
1602;DHT22;794;48.592;9.634;2023-04-07T15:54:55;9.50;1.00
1602;DHT22;794;48.592;9.634;2023-04-07T15:57:22;9.50;1.00
1602;DHT22;794;48.592;9.634;2023-04-07T15:59:49;9.70;1.00
1602;DHT22;794;48.592;9.634;2023-04-07T16:02:16;9.50;1.00
1602;DHT22;794;48.592;9.634;2023-04-07T16:04:44;9.30;1.00
1602;DHT22;794;48.592;9.634;2023-04-07T16:07:12;9.10;1.00
1602;DHT22;794;48.592;9.634;2023-04-07T16:09:40;9.50;1.00
1602;DHT22;794;48.592;9.634;2023-04-07T16:12:07;9.30;1.00
1602;DHT22;794;48.592;9.634;2023-04-07T16:14:34;9.40;1.00
1602;DHT22;794;48.592;9.634;2023-04-07T16:17:01;8.90;1.00
1602;DHT22;794;48.592;9.634;2023-04-07T16:19:28;9.20;1.00
1602;DHT22;794;48.592;9.634;2023-04-07T16:21:55;9.20;1.00
1602;DHT22;794;48.592;9.634;2023-04-07T16:24:22;9.30;1.00
1602;DHT22;794;48.592;9.634;2023-04-07T16:26:51;9.60;1.00
1602;DHT22;794;48.592;9.634;2023-04-07T16:29:18;9.90;1.00
1602;DHT22;794;48.592;9.634;2023-04-07T16:31:47;10.10;1.00
1602;DHT22;794;48.592;9.634;2023-04-07T16:34:14;10.20;1.00
1602;DHT22;794;48.592;9.634;2023-04-07T16:36:41;10.30;1.00
1602;DHT22;794;48.592;9.634;2023-04-07T16:39:09;10.00;1.00
1602;DHT22;794;48.592;9.634;2023-04-07T16:41:36;10.10;1.00
1602;DHT22;794;48.592;9.634;2023-04-07T16:44:04;10.30;1.00
1602;DHT22;794;48.592;9.634;2023-04-07T16:46:31;10.40;1.00
1602;DHT22;794;48.592;9.634;2023-04-07T16:49:01;10.40;1.00
1602;DHT22;794;48.592;9.634;2023-04-07T16:51:29;10.90;1.00
1602;DHT22;794;48.592;9.634;2023-04-07T16:53:56;10.60;1.00
1602;DHT22;794;48.592;9.634;2023-04-07T16:56:24;10.30;1.00
1602;DHT22;794;48.592;9.634;2023-04-07T16:58:51;10.40;1.00
1602;DHT22;794;48.592;9.634;2023-04-07T17:01:20;10.40;1.00
1602;DHT22;794;48.592;9.634;2023-04-07T17:03:47;10.20;1.00
1602;DHT22;794;48.592;9.634;2023-04-07T17:06:14;10.90;1.00
1602;DHT22;794;48.592;9.634;2023-04-07T17:08:41;10.40;1.00